MMZC

General Leobardo C. Ruiz International Airport

Zacatecas, Mexico
TAF MMZC 132305Z 1400/1506 24010KT P6SM SCT030 BKN200 TX14/1421Z TN03/1410Z BECMG 1403/1404 03005KT FM141900 34015KT P6SM BKN200 BECMG 1502/1503 02006KT
Issued Valid From Valid To
Dec-13 @ 23:05 UTC
(5 hours ago)
Dec-14 @ 00:00 UTC
(4 hours ago)
Dec-15 @ 06:00 UTC
(-1 days ago)
Expired Click to View Dec-14 @ 00:00 to Dec-14 @ 03:00
TAF MMZC 132305Z 1400/1506 24010KT P6SM SCT030 BKN200 TX14/1421Z TN03/1410Z
Wind Visibility Clouds
240° at 10 knots Greater than 6 miles
  • Scattered at 3,000' AGL
  • Broken at 20,000' AGL
Becoming Dec-14 @ 03:00 to Dec-14 @ 19:00
BECMG 1403/1404 03005KT
Wind Visibility Clouds
30° at 5 knots Greater than 6 miles
  • Scattered at 3,000' AGL
  • Broken at 20,000' AGL
From Dec-14 @ 19:00 to Dec-15 @ 02:00
FM141900 34015KT P6SM BKN200
Wind Visibility Clouds
340° at 15 knots Greater than 6 miles
  • Broken at 20,000' AGL
Becoming Dec-15 @ 02:00 to Dec-15 @ 06:00
BECMG 1502/1503 02006KT
Wind Visibility Clouds
20° at 6 knots Greater than 6 miles
  • Broken at 20,000' AGL
TAF MMZC 132305Z 1400/1506 24010KT P6SM SCT030 BKN200 TX14/1421Z TN03/1410Z BECMG 1403/1404 03005KT FM141900 34015KT P6SM BKN200 BECMG 1502/1503 02006KT
Issued Dec-13 @ 23:05 UTC
(5 hours ago)
Valid From Dec-14 @ 00:00 UTC
(4 hours ago)
Valid To Dec-15 @ 06:00 UTC
(-1 days ago)
Dec-14 @ 00:00 - Dec-14 @ 03:00
Wind Visibility
240° at 10 knots Greater than 6 miles
Clouds
  • Scattered at 3,000' AGL
  • Broken at 20,000' AGL
Becoming Dec-14 @ 03:00 - Dec-14 @ 19:00
Wind Visibility
30° at 5 knots Greater than 6 miles
Clouds
  • Scattered at 3,000' AGL
  • Broken at 20,000' AGL
From Dec-14 @ 19:00 - Dec-15 @ 02:00
Wind Visibility
340° at 15 knots Greater than 6 miles
Clouds
  • Broken at 20,000' AGL
Becoming Dec-15 @ 02:00 - Dec-15 @ 06:00
Wind Visibility
20° at 6 knots Greater than 6 miles
Clouds
  • Broken at 20,000' AGL